sensor_id;sensor_type;location;lat;lon;timestamp;temperature;humidity
39899;DHT22;25571;47.876;10.642;2022-10-16T00:00:27;12.90;99.90
39899;DHT22;25571;47.876;10.642;2022-10-16T00:02:52;13.10;99.90
39899;DHT22;25571;47.876;10.642;2022-10-16T00:05:18;13.10;99.90
39899;DHT22;25571;47.876;10.642;2022-10-16T00:07:43;13.10;99.90
39899;DHT22;25571;47.876;10.642;2022-10-16T00:10:09;13.10;99.90
39899;DHT22;25571;47.876;10.642;2022-10-16T00:12:34;13.10;99.90
39899;DHT22;25571;47.876;10.642;2022-10-16T00:15:00;13.00;99.90
39899;DHT22;25571;47.876;10.642;2022-10-16T00:17:25;13.00;99.90
39899;DHT22;25571;47.876;10.642;2022-10-16T00:19:51;13.00;99.90
39899;DHT22;25571;47.876;10.642;2022-10-16T00:22:16;13.00;99.90
39899;DHT22;25571;47.876;10.642;2022-10-16T00:24:42;13.00;99.90
39899;DHT22;25571;47.876;10.642;2022-10-16T00:27:07;13.10;99.90
39899;DHT22;25571;47.876;10.642;2022-10-16T00:29:33;13.10;99.90
39899;DHT22;25571;47.876;10.642;2022-10-16T00:31:58;13.00;99.90
39899;DHT22;25571;47.876;10.642;2022-10-16T00:34:24;13.10;99.90
39899;DHT22;25571;47.876;10.642;2022-10-16T00:36:49;12.90;99.90
39899;DHT22;25571;47.876;10.642;2022-10-16T00:39:15;13.00;99.90
39899;DHT22;25571;47.876;10.642;2022-10-16T00:41:40;13.00;99.90
39899;DHT22;25571;47.876;10.642;2022-10-16T00:46:50;13.00;99.90
39899;DHT22;25571;47.876;10.642;2022-10-16T00:49:17;13.10;99.90
39899;DHT22;25571;47.876;10.642;2022-10-16T00:51:45;13.00;99.90
39899;DHT22;25571;47.876;10.642;2022-10-16T00:54:14;12.90;99.90
39899;DHT22;25571;47.876;10.642;2022-10-16T00:56:41;12.80;99.90
39899;DHT22;25571;47.876;10.642;2022-10-16T00:59:11;12.80;99.90
39899;DHT22;25571;47.876;10.642;2022-10-16T01:01:39;12.80;99.90
39899;DHT22;25571;47.876;10.642;2022-10-16T01:04:04;12.90;99.90
39899;DHT22;25571;47.876;10.642;2022-10-16T01:06:38;12.90;99.90
39899;DHT22;25571;47.876;10.642;2022-10-16T01:12:01;12.80;99.90
39899;DHT22;25571;47.876;10.642;2022-10-16T01:17:51;12.60;99.90
39899;DHT22;25571;47.876;10.642;2022-10-16T01:22:28;12.50;99.90
39899;DHT22;25571;47.876;10.642;2022-10-16T01:24:57;12.50;99.90
39899;DHT22;25571;47.876;10.642;2022-10-16T01:27:26;12.50;99.90
39899;DHT22;25571;47.876;10.642;2022-10-16T01:30:13;12.30;99.90
39899;DHT22;25571;47.876;10.642;2022-10-16T01:40:24;12.30;99.90
39899;DHT22;25571;47.876;10.642;2022-10-16T01:42:53;12.30;99.90
39899;DHT22;25571;47.876;10.642;2022-10-16T01:45:20;12.30;99.90
39899;DHT22;25571;47.876;10.642;2022-10-16T01:47:46;12.30;99.90
39899;DHT22;25571;47.876;10.642;2022-10-16T01:50:13;12.30;99.90
39899;DHT22;25571;47.876;10.642;2022-10-16T01:52:41;12.30;99.90
39899;DHT22;25571;47.876;10.642;2022-10-16T01:55:09;12.30;99.90
39899;DHT22;25571;47.876;10.642;2022-10-16T01:57:36;12.30;99.90
39899;DHT22;25571;47.876;10.642;2022-10-16T02:00:05;12.30;99.90
39899;DHT22;25571;47.876;10.642;2022-10-16T02:02:32;12.40;99.90
39899;DHT22;25571;47.876;10.642;2022-10-16T02:05:02;12.40;99.90
39899;DHT22;25571;47.876;10.642;2022-10-16T02:07:29;12.40;99.90
39899;DHT22;25571;47.876;10.642;2022-10-16T02:09:55;12.40;99.90
39899;DHT22;25571;47.876;10.642;2022-10-16T02:12:25;12.40;99.90
39899;DHT22;25571;47.876;10.642;2022-10-16T02:14:52;12.30;99.90
39899;DHT22;25571;47.876;10.642;2022-10-16T02:17:18;12.40;99.90
39899;DHT22;25571;47.876;10.642;2022-10-16T02:19:44;12.50;99.90
39899;DHT22;25571;47.876;10.642;2022-10-16T02:22:15;12.50;99.90
39899;DHT22;25571;47.876;10.642;2022-10-16T02:24:57;12.50;99.90
39899;DHT22;25571;47.876;10.642;2022-10-16T02:29:58;12.40;99.90
39899;DHT22;25571;47.876;10.642;2022-10-16T02:32:27;12.40;99.90
39899;DHT22;25571;47.876;10.642;2022-10-16T02:34:55;12.50;99.90
39899;DHT22;25571;47.876;10.642;2022-10-16T02:37:21;12.60;99.90
39899;DHT22;25571;47.876;10.642;2022-10-16T02:39:47;12.60;99.90
39899;DHT22;25571;47.876;10.642;2022-10-16T02:42:13;12.70;99.90
39899;DHT22;25571;47.876;10.642;2022-10-16T02:44:39;12.70;99.90
39899;DHT22;25571;47.876;10.642;2022-10-16T02:47:04;12.70;99.90
39899;DHT22;25571;47.876;10.642;2022-10-16T02:49:30;12.80;99.90
39899;DHT22;25571;47.876;10.642;2022-10-16T02:51:55;12.80;99.90
39899;DHT22;25571;47.876;10.642;2022-10-16T02:54:20;12.80;99.90
39899;DHT22;25571;47.876;10.642;2022-10-16T02:56:46;12.70;99.90
39899;DHT22;25571;47.876;10.642;2022-10-16T02:59:11;12.70;99.90
39899;DHT22;25571;47.876;10.642;2022-10-16T03:01:37;12.70;99.90
39899;DHT22;25571;47.876;10.642;2022-10-16T03:04:02;12.60;99.90
39899;DHT22;25571;47.876;10.642;2022-10-16T03:06:28;12.50;99.90
39899;DHT22;25571;47.876;10.642;2022-10-16T03:08:53;12.60;99.90
39899;DHT22;25571;47.876;10.642;2022-10-16T03:11:19;12.70;99.90
39899;DHT22;25571;47.876;10.642;2022-10-16T03:13:44;12.70;99.90
39899;DHT22;25571;47.876;10.642;2022-10-16T03:16:10;12.70;99.90
39899;DHT22;25571;47.876;10.642;2022-10-16T03:18:35;12.80;99.90
39899;DHT22;25571;47.876;10.642;2022-10-16T03:21:01;12.80;99.90
39899;DHT22;25571;47.876;10.642;2022-10-16T03:23:26;12.80;99.90
39899;DHT22;25571;47.876;10.642;2022-10-16T03:25:52;12.90;99.90
39899;DHT22;25571;47.876;10.642;2022-10-16T03:28:18;12.90;99.90
39899;DHT22;25571;47.876;10.642;2022-10-16T03:30:43;12.90;99.90
39899;DHT22;25571;47.876;10.642;2022-10-16T03:33:09;12.80;99.90
39899;DHT22;25571;47.876;10.642;2022-10-16T03:35:34;12.80;99.90
39899;DHT22;25571;47.876;10.642;2022-10-16T03:37:59;12.90;99.90
39899;DHT22;25571;47.876;10.642;2022-10-16T03:40:25;12.80;99.90
39899;DHT22;25571;47.876;10.642;2022-10-16T03:42:50;12.70;99.90
39899;DHT22;25571;47.876;10.642;2022-10-16T03:45:16;12.80;99.90
39899;DHT22;25571;47.876;10.642;2022-10-16T03:47:41;12.80;99.90
39899;DHT22;25571;47.876;10.642;2022-10-16T03:50:07;12.70;99.90
39899;DHT22;25571;47.876;10.642;2022-10-16T03:52:33;12.60;99.90
39899;DHT22;25571;47.876;10.642;2022-10-16T03:54:58;12.60;99.90
39899;DHT22;25571;47.876;10.642;2022-10-16T03:57:24;12.60;99.90
39899;DHT22;25571;47.876;10.642;2022-10-16T03:59:49;12.60;99.90
39899;DHT22;25571;47.876;10.642;2022-10-16T04:02:15;12.60;99.90
39899;DHT22;25571;47.876;10.642;2022-10-16T04:04:40;12.70;99.90
39899;DHT22;25571;47.876;10.642;2022-10-16T04:07:06;12.80;99.90
39899;DHT22;25571;47.876;10.642;2022-10-16T04:09:31;12.90;99.90
39899;DHT22;25571;47.876;10.642;2022-10-16T04:11:57;12.90;99.90
39899;DHT22;25571;47.876;10.642;2022-10-16T04:14:22;12.90;99.90
39899;DHT22;25571;47.876;10.642;2022-10-16T04:16:48;12.90;99.90
39899;DHT22;25571;47.876;10.642;2022-10-16T04:19:13;12.90;99.90
39899;DHT22;25571;47.876;10.642;2022-10-16T04:21:39;12.90;99.90
39899;DHT22;25571;47.876;10.642;2022-10-16T04:24:04;12.90;99.90
39899;DHT22;25571;47.876;10.642;2022-10-16T04:26:30;12.90;99.90
39899;DHT22;25571;47.876;10.642;2022-10-16T04:28:55;12.80;99.90
39899;DHT22;25571;47.876;10.642;2022-10-16T04:31:21;12.80;99.90
39899;DHT22;25571;47.876;10.642;2022-10-16T04:33:46;12.80;99.90
39899;DHT22;25571;47.876;10.642;2022-10-16T04:36:12;12.90;99.90
39899;DHT22;25571;47.876;10.642;2022-10-16T04:38:37;12.90;99.90
39899;DHT22;25571;47.876;10.642;2022-10-16T04:41:05;12.90;99.90
39899;DHT22;25571;47.876;10.642;2022-10-16T04:43:30;12.90;99.90
39899;DHT22;25571;47.876;10.642;2022-10-16T04:45:56;12.90;99.90
39899;DHT22;25571;47.876;10.642;2022-10-16T04:48:21;12.90;99.90
39899;DHT22;25571;47.876;10.642;2022-10-16T04:50:47;12.90;99.90
39899;DHT22;25571;47.876;10.642;2022-10-16T04:53:13;12.90;99.90
39899;DHT22;25571;47.876;10.642;2022-10-16T04:55:39;12.90;99.90
39899;DHT22;25571;47.876;10.642;2022-10-16T04:58:04;12.90;99.90
39899;DHT22;25571;47.876;10.642;2022-10-16T05:00:30;12.90;99.90
39899;DHT22;25571;47.876;10.642;2022-10-16T05:02:55;12.90;99.90
39899;DHT22;25571;47.876;10.642;2022-10-16T05:05:22;12.90;99.90
39899;DHT22;25571;47.876;10.642;2022-10-16T05:07:48;12.80;99.90
39899;DHT22;25571;47.876;10.642;2022-10-16T05:10:15;12.90;99.90
39899;DHT22;25571;47.876;10.642;2022-10-16T05:12:40;12.90;99.90
39899;DHT22;25571;47.876;10.642;2022-10-16T05:15:06;12.90;99.90
39899;DHT22;25571;47.876;10.642;2022-10-16T05:17:31;12.80;99.90
39899;DHT22;25571;47.876;10.642;2022-10-16T05:19:57;12.90;99.90
39899;DHT22;25571;47.876;10.642;2022-10-16T05:22:22;12.90;99.90
39899;DHT22;25571;47.876;10.642;2022-10-16T05:24:48;12.90;99.90
39899;DHT22;25571;47.876;10.642;2022-10-16T05:27:13;13.00;99.90
39899;DHT22;25571;47.876;10.642;2022-10-16T05:29:47;13.00;99.90
39899;DHT22;25571;47.876;10.642;2022-10-16T05:32:16;13.10;99.90
39899;DHT22;25571;47.876;10.642;2022-10-16T05:34:41;13.00;99.90
39899;DHT22;25571;47.876;10.642;2022-10-16T05:37:07;12.90;99.90
39899;DHT22;25571;47.876;10.642;2022-10-16T05:39:33;12.90;99.90
39899;DHT22;25571;47.876;10.642;2022-10-16T05:41:58;12.90;99.90
39899;DHT22;25571;47.876;10.642;2022-10-16T05:44:24;12.80;99.90
39899;DHT22;25571;47.876;10.642;2022-10-16T05:46:49;12.80;99.90
39899;DHT22;25571;47.876;10.642;2022-10-16T05:49:15;12.80;99.90
39899;DHT22;25571;47.876;10.642;2022-10-16T05:51:40;12.90;99.90
39899;DHT22;25571;47.876;10.642;2022-10-16T05:54:07;13.00;99.90
39899;DHT22;25571;47.876;10.642;2022-10-16T05:56:32;13.00;99.90
39899;DHT22;25571;47.876;10.642;2022-10-16T05:58:58;13.10;99.90
39899;DHT22;25571;47.876;10.642;2022-10-16T06:01:23;13.00;99.90
39899;DHT22;25571;47.876;10.642;2022-10-16T06:03:50;12.90;99.90
39899;DHT22;25571;47.876;10.642;2022-10-16T06:06:16;13.00;99.90
39899;DHT22;25571;47.876;10.642;2022-10-16T06:08:43;12.90;99.90
39899;DHT22;25571;47.876;10.642;2022-10-16T06:11:10;12.90;99.90
39899;DHT22;25571;47.876;10.642;2022-10-16T06:13:35;12.90;99.90
39899;DHT22;25571;47.876;10.642;2022-10-16T06:16:02;12.90;99.90
39899;DHT22;25571;47.876;10.642;2022-10-16T06:18:28;12.90;99.90
39899;DHT22;25571;47.876;10.642;2022-10-16T06:20:53;13.00;99.90
39899;DHT22;25571;47.876;10.642;2022-10-16T06:23:19;13.10;99.90
39899;DHT22;25571;47.876;10.642;2022-10-16T06:25:45;13.10;99.90
39899;DHT22;25571;47.876;10.642;2022-10-16T06:28:10;13.10;99.90
39899;DHT22;25571;47.876;10.642;2022-10-16T06:30:36;13.10;99.90
39899;DHT22;25571;47.876;10.642;2022-10-16T06:33:01;13.20;99.90
39899;DHT22;25571;47.876;10.642;2022-10-16T06:35:27;13.30;99.90
39899;DHT22;25571;47.876;10.642;2022-10-16T06:37:54;13.30;99.90
39899;DHT22;25571;47.876;10.642;2022-10-16T06:40:20;13.30;99.90
39899;DHT22;25571;47.876;10.642;2022-10-16T06:42:45;13.40;99.90
39899;DHT22;25571;47.876;10.642;2022-10-16T06:45:11;13.50;99.90
39899;DHT22;25571;47.876;10.642;2022-10-16T06:47:36;13.50;99.90
39899;DHT22;25571;47.876;10.642;2022-10-16T06:50:02;13.60;99.90
39899;DHT22;25571;47.876;10.642;2022-10-16T06:52:29;13.70;99.90
39899;DHT22;25571;47.876;10.642;2022-10-16T06:54:54;13.80;99.90
39899;DHT22;25571;47.876;10.642;2022-10-16T06:57:20;13.80;99.90
39899;DHT22;25571;47.876;10.642;2022-10-16T06:59:45;14.00;99.90
39899;DHT22;25571;47.876;10.642;2022-10-16T07:02:11;14.20;99.90
39899;DHT22;25571;47.876;10.642;2022-10-16T07:04:36;14.40;99.90
39899;DHT22;25571;47.876;10.642;2022-10-16T07:07:02;14.60;99.90
39899;DHT22;25571;47.876;10.642;2022-10-16T07:09:28;15.00;99.90
39899;DHT22;25571;47.876;10.642;2022-10-16T07:11:53;15.30;99.90
39899;DHT22;25571;47.876;10.642;2022-10-16T07:14:20;15.50;99.90
39899;DHT22;25571;47.876;10.642;2022-10-16T07:16:46;15.70;99.90
39899;DHT22;25571;47.876;10.642;2022-10-16T07:19:12;15.70;99.90
39899;DHT22;25571;47.876;10.642;2022-10-16T07:21:40;15.70;99.90
39899;DHT22;25571;47.876;10.642;2022-10-16T07:24:06;15.70;99.90
39899;DHT22;25571;47.876;10.642;2022-10-16T07:26:33;15.70;99.90
39899;DHT22;25571;47.876;10.642;2022-10-16T07:28:59;15.80;99.90
39899;DHT22;25571;47.876;10.642;2022-10-16T07:31:24;15.70;99.90
39899;DHT22;25571;47.876;10.642;2022-10-16T07:33:50;15.60;99.90
39899;DHT22;25571;47.876;10.642;2022-10-16T07:36:16;15.60;99.90
39899;DHT22;25571;47.876;10.642;2022-10-16T07:38:43;15.60;99.90
39899;DHT22;25571;47.876;10.642;2022-10-16T07:41:09;15.70;99.90
39899;DHT22;25571;47.876;10.642;2022-10-16T07:43:35;15.90;99.90
39899;DHT22;25571;47.876;10.642;2022-10-16T07:46:01;16.10;99.90
39899;DHT22;25571;47.876;10.642;2022-10-16T07:48:28;16.20;99.90
39899;DHT22;25571;47.876;10.642;2022-10-16T07:50:56;16.20;99.90
39899;DHT22;25571;47.876;10.642;2022-10-16T07:53:22;16.40;99.90
39899;DHT22;25571;47.876;10.642;2022-10-16T07:55:47;16.60;99.90
39899;DHT22;25571;47.876;10.642;2022-10-16T07:58:13;16.90;99.90
39899;DHT22;25571;47.876;10.642;2022-10-16T08:00:39;17.20;99.90
39899;DHT22;25571;47.876;10.642;2022-10-16T08:03:04;17.40;99.90
39899;DHT22;25571;47.876;10.642;2022-10-16T08:05:30;17.70;99.90
39899;DHT22;25571;47.876;10.642;2022-10-16T08:07:56;18.30;99.90
39899;DHT22;25571;47.876;10.642;2022-10-16T08:10:23;18.50;99.90
39899;DHT22;25571;47.876;10.642;2022-10-16T08:12:50;18.40;99.90
39899;DHT22;25571;47.876;10.642;2022-10-16T08:15:16;18.70;99.90
39899;DHT22;25571;47.876;10.642;2022-10-16T08:17:41;18.90;99.90
39899;DHT22;25571;47.876;10.642;2022-10-16T08:20:07;19.50;99.90
39899;DHT22;25571;47.876;10.642;2022-10-16T08:22:33;19.70;99.90
39899;DHT22;25571;47.876;10.642;2022-10-16T08:24:58;20.20;99.90
39899;DHT22;25571;47.876;10.642;2022-10-16T08:27:23;20.80;99.90
39899;DHT22;25571;47.876;10.642;2022-10-16T08:29:49;21.80;99.90
39899;DHT22;25571;47.876;10.642;2022-10-16T08:32:15;23.50;99.80
39899;DHT22;25571;47.876;10.642;2022-10-16T08:34:40;23.90;97.90
39899;DHT22;25571;47.876;10.642;2022-10-16T08:37:06;25.50;94.30
39899;DHT22;25571;47.876;10.642;2022-10-16T08:39:33;26.90;86.70
39899;DHT22;25571;47.876;10.642;2022-10-16T08:44:44;29.20;73.00
39899;DHT22;25571;47.876;10.642;2022-10-16T08:49:42;31.40;59.30
39899;DHT22;25571;47.876;10.642;2022-10-16T08:52:10;30.60;59.10
39899;DHT22;25571;47.876;10.642;2022-10-16T08:54:37;30.00;60.90
39899;DHT22;25571;47.876;10.642;2022-10-16T08:57:28;30.20;60.00
39899;DHT22;25571;47.876;10.642;2022-10-16T08:59:53;29.80;58.90
39899;DHT22;25571;47.876;10.642;2022-10-16T09:07:29;30.60;57.20
39899;DHT22;25571;47.876;10.642;2022-10-16T09:17:47;34.00;51.30
39899;DHT22;25571;47.876;10.642;2022-10-16T09:22:40;32.70;51.10
39899;DHT22;25571;47.876;10.642;2022-10-16T09:25:16;31.70;52.20
39899;DHT22;25571;47.876;10.642;2022-10-16T09:27:44;30.70;53.90
39899;DHT22;25571;47.876;10.642;2022-10-16T09:30:15;30.00;56.10
39899;DHT22;25571;47.876;10.642;2022-10-16T09:32:41;28.90;58.50
39899;DHT22;25571;47.876;10.642;2022-10-16T09:35:11;28.30;59.70
39899;DHT22;25571;47.876;10.642;2022-10-16T09:37:38;27.40;62.40
39899;DHT22;25571;47.876;10.642;2022-10-16T09:40:04;26.70;65.60
39899;DHT22;25571;47.876;10.642;2022-10-16T09:42:34;26.20;66.70
39899;DHT22;25571;47.876;10.642;2022-10-16T09:45:00;25.80;68.40
39899;DHT22;25571;47.876;10.642;2022-10-16T09:47:26;25.40;68.60
39899;DHT22;25571;47.876;10.642;2022-10-16T09:49:54;25.10;70.30
39899;DHT22;25571;47.876;10.642;2022-10-16T09:52:20;24.90;72.10
39899;DHT22;25571;47.876;10.642;2022-10-16T09:54:53;24.60;73.00
39899;DHT22;25571;47.876;10.642;2022-10-16T09:57:19;24.30;73.40
39899;DHT22;25571;47.876;10.642;2022-10-16T09:59:52;24.10;76.00
39899;DHT22;25571;47.876;10.642;2022-10-16T10:02:19;23.90;75.70
39899;DHT22;25571;47.876;10.642;2022-10-16T10:04:48;23.80;77.20
39899;DHT22;25571;47.876;10.642;2022-10-16T10:07:24;23.70;77.20
39899;DHT22;25571;47.876;10.642;2022-10-16T10:09:50;23.50;78.80
39899;DHT22;25571;47.876;10.642;2022-10-16T10:12:20;23.30;79.40
39899;DHT22;25571;47.876;10.642;2022-10-16T10:14:47;23.30;80.50
39899;DHT22;25571;47.876;10.642;2022-10-16T10:22:23;23.70;79.70
39899;DHT22;25571;47.876;10.642;2022-10-16T10:35:20;23.40;80.40
39899;DHT22;25571;47.876;10.642;2022-10-16T10:45:43;23.00;78.70
39899;DHT22;25571;47.876;10.642;2022-10-16T10:55:36;22.80;83.60
39899;DHT22;25571;47.876;10.642;2022-10-16T11:05:44;22.60;81.60
39899;DHT22;25571;47.876;10.642;2022-10-16T11:08:22;22.50;79.20
39899;DHT22;25571;47.876;10.642;2022-10-16T11:13:22;22.60;80.90
39899;DHT22;25571;47.876;10.642;2022-10-16T11:15:50;22.60;76.10
39899;DHT22;25571;47.876;10.642;2022-10-16T11:18:19;22.60;78.30
39899;DHT22;25571;47.876;10.642;2022-10-16T11:20:47;22.60;76.60
39899;DHT22;25571;47.876;10.642;2022-10-16T11:23:23;22.50;77.20
39899;DHT22;25571;47.876;10.642;2022-10-16T11:25:50;22.40;76.30
39899;DHT22;25571;47.876;10.642;2022-10-16T11:28:37;22.40;73.80
39899;DHT22;25571;47.876;10.642;2022-10-16T11:31:24;22.40;75.40
39899;DHT22;25571;47.876;10.642;2022-10-16T11:39:19;22.40;72.90
39899;DHT22;25571;47.876;10.642;2022-10-16T11:41:48;22.50;72.30
39899;DHT22;25571;47.876;10.642;2022-10-16T11:47:02;22.40;70.40
39899;DHT22;25571;47.876;10.642;2022-10-16T11:49:32;22.40;71.50
39899;DHT22;25571;47.876;10.642;2022-10-16T11:52:05;22.30;72.70
39899;DHT22;25571;47.876;10.642;2022-10-16T11:54:41;22.20;72.00
39899;DHT22;25571;47.876;10.642;2022-10-16T11:57:11;22.20;71.30
39899;DHT22;25571;47.876;10.642;2022-10-16T12:04:55;22.20;71.80
39899;DHT22;25571;47.876;10.642;2022-10-16T12:07:27;22.20;74.60
39899;DHT22;25571;47.876;10.642;2022-10-16T12:09:57;22.10;71.20
39899;DHT22;25571;47.876;10.642;2022-10-16T12:12:27;22.20;73.40
39899;DHT22;25571;47.876;10.642;2022-10-16T12:14:59;21.80;73.50
39899;DHT22;25571;47.876;10.642;2022-10-16T12:17:27;22.20;73.90
39899;DHT22;25571;47.876;10.642;2022-10-16T12:22:55;22.20;73.70
39899;DHT22;25571;47.876;10.642;2022-10-16T12:25:25;22.10;74.00
39899;DHT22;25571;47.876;10.642;2022-10-16T12:27:54;22.10;71.80
39899;DHT22;25571;47.876;10.642;2022-10-16T12:30:22;21.90;71.50
39899;DHT22;25571;47.876;10.642;2022-10-16T12:32:58;21.90;71.90
39899;DHT22;25571;47.876;10.642;2022-10-16T12:35:26;21.90;71.20
39899;DHT22;25571;47.876;10.642;2022-10-16T12:37:53;21.90;72.00
39899;DHT22;25571;47.876;10.642;2022-10-16T12:40:28;22.00;73.30
39899;DHT22;25571;47.876;10.642;2022-10-16T12:42:55;22.00;71.90
39899;DHT22;25571;47.876;10.642;2022-10-16T12:45:30;22.00;73.50
39899;DHT22;25571;47.876;10.642;2022-10-16T12:47:56;22.00;73.60
39899;DHT22;25571;47.876;10.642;2022-10-16T12:50:23;22.00;74.30
39899;DHT22;25571;47.876;10.642;2022-10-16T12:52:49;21.90;72.20
39899;DHT22;25571;47.876;10.642;2022-10-16T12:55:19;22.00;73.30
39899;DHT22;25571;47.876;10.642;2022-10-16T13:08:18;22.00;72.70
39899;DHT22;25571;47.876;10.642;2022-10-16T13:10:54;22.00;71.10
39899;DHT22;25571;47.876;10.642;2022-10-16T13:16:18;21.90;70.90
39899;DHT22;25571;47.876;10.642;2022-10-16T13:27:40;21.80;72.80
39899;DHT22;25571;47.876;10.642;2022-10-16T13:29:46;21.70;71.20
39899;DHT22;25571;47.876;10.642;2022-10-16T13:32:17;21.70;72.80
39899;DHT22;25571;47.876;10.642;2022-10-16T13:34:45;21.80;72.00
39899;DHT22;25571;47.876;10.642;2022-10-16T13:37:18;21.80;73.50
39899;DHT22;25571;47.876;10.642;2022-10-16T13:39:43;21.70;70.90
39899;DHT22;25571;47.876;10.642;2022-10-16T13:42:13;21.80;70.70
39899;DHT22;25571;47.876;10.642;2022-10-16T13:44:42;21.70;71.50
39899;DHT22;25571;47.876;10.642;2022-10-16T13:47:18;21.70;70.30
39899;DHT22;25571;47.876;10.642;2022-10-16T13:49:44;21.80;69.90
39899;DHT22;25571;47.876;10.642;2022-10-16T13:52:17;21.70;70.20
39899;DHT22;25571;47.876;10.642;2022-10-16T13:54:43;21.70;71.30
39899;DHT22;25571;47.876;10.642;2022-10-16T13:57:11;21.70;72.40
39899;DHT22;25571;47.876;10.642;2022-10-16T13:59:37;21.60;71.30
39899;DHT22;25571;47.876;10.642;2022-10-16T14:02:37;21.70;70.10
39899;DHT22;25571;47.876;10.642;2022-10-16T14:04:56;21.70;71.40
39899;DHT22;25571;47.876;10.642;2022-10-16T14:07:31;21.70;72.60
39899;DHT22;25571;47.876;10.642;2022-10-16T14:10:00;21.70;72.80
39899;DHT22;25571;47.876;10.642;2022-10-16T14:12:26;21.70;71.70
39899;DHT22;25571;47.876;10.642;2022-10-16T14:14:52;21.60;70.10
39899;DHT22;25571;47.876;10.642;2022-10-16T14:17:31;21.70;70.70
39899;DHT22;25571;47.876;10.642;2022-10-16T14:19:58;21.70;69.60
39899;DHT22;25571;47.876;10.642;2022-10-16T14:22:37;21.70;70.30
39899;DHT22;25571;47.876;10.642;2022-10-16T14:27:44;21.60;72.90
39899;DHT22;25571;47.876;10.642;2022-10-16T14:30:14;21.60;74.20
39899;DHT22;25571;47.876;10.642;2022-10-16T14:32:41;21.60;74.90
39899;DHT22;25571;47.876;10.642;2022-10-16T14:35:24;21.50;76.30
39899;DHT22;25571;47.876;10.642;2022-10-16T14:37:53;21.50;74.20
39899;DHT22;25571;47.876;10.642;2022-10-16T14:40:19;21.50;75.90
39899;DHT22;25571;47.876;10.642;2022-10-16T14:42:45;21.50;75.20
39899;DHT22;25571;47.876;10.642;2022-10-16T14:45:11;21.50;75.20
39899;DHT22;25571;47.876;10.642;2022-10-16T14:47:37;21.50;76.20
39899;DHT22;25571;47.876;10.642;2022-10-16T14:50:11;21.50;77.80
39899;DHT22;25571;47.876;10.642;2022-10-16T14:52:37;21.50;76.80
39899;DHT22;25571;47.876;10.642;2022-10-16T14:55:03;21.50;75.80
39899;DHT22;25571;47.876;10.642;2022-10-16T14:57:28;21.40;76.30
39899;DHT22;25571;47.876;10.642;2022-10-16T14:59:56;21.40;78.80
39899;DHT22;25571;47.876;10.642;2022-10-16T15:02:27;21.30;81.20
39899;DHT22;25571;47.876;10.642;2022-10-16T15:04:53;21.20;81.70
39899;DHT22;25571;47.876;10.642;2022-10-16T15:07:19;21.30;81.30
39899;DHT22;25571;47.876;10.642;2022-10-16T15:09:45;21.30;82.10
39899;DHT22;25571;47.876;10.642;2022-10-16T15:12:10;21.20;82.40
39899;DHT22;25571;47.876;10.642;2022-10-16T15:14:36;21.20;82.60
39899;DHT22;25571;47.876;10.642;2022-10-16T15:17:02;21.20;80.70
39899;DHT22;25571;47.876;10.642;2022-10-16T15:19:27;21.20;81.30
39899;DHT22;25571;47.876;10.642;2022-10-16T15:21:53;21.10;81.60
39899;DHT22;25571;47.876;10.642;2022-10-16T15:24:18;21.00;82.70
39899;DHT22;25571;47.876;10.642;2022-10-16T15:26:44;20.20;82.00
39899;DHT22;25571;47.876;10.642;2022-10-16T15:29:11;21.10;83.50
39899;DHT22;25571;47.876;10.642;2022-10-16T15:31:37;21.00;85.10
39899;DHT22;25571;47.876;10.642;2022-10-16T15:34:03;21.00;86.10
39899;DHT22;25571;47.876;10.642;2022-10-16T15:36:34;21.00;88.40
39899;DHT22;25571;47.876;10.642;2022-10-16T15:39:23;21.00;87.30
39899;DHT22;25571;47.876;10.642;2022-10-16T15:41:47;20.90;85.00
39899;DHT22;25571;47.876;10.642;2022-10-16T15:44:19;20.80;84.90
39899;DHT22;25571;47.876;10.642;2022-10-16T15:46:46;20.80;84.40
39899;DHT22;25571;47.876;10.642;2022-10-16T15:49:12;20.80;86.40
39899;DHT22;25571;47.876;10.642;2022-10-16T15:51:38;20.70;90.00
39899;DHT22;25571;47.876;10.642;2022-10-16T15:54:04;20.60;90.00
39899;DHT22;25571;47.876;10.642;2022-10-16T15:56:30;20.50;90.10
39899;DHT22;25571;47.876;10.642;2022-10-16T15:58:59;20.20;90.00
39899;DHT22;25571;47.876;10.642;2022-10-16T16:01:24;20.50;90.40
39899;DHT22;25571;47.876;10.642;2022-10-16T16:03:53;20.40;90.50
39899;DHT22;25571;47.876;10.642;2022-10-16T16:06:19;20.40;90.70
39899;DHT22;25571;47.876;10.642;2022-10-16T16:08:45;20.30;90.40
39899;DHT22;25571;47.876;10.642;2022-10-16T16:11:11;20.20;91.10
39899;DHT22;25571;47.876;10.642;2022-10-16T16:13:37;20.20;90.70
39899;DHT22;25571;47.876;10.642;2022-10-16T16:16:07;20.10;90.90
39899;DHT22;25571;47.876;10.642;2022-10-16T16:18:33;19.90;90.60
39899;DHT22;25571;47.876;10.642;2022-10-16T16:20:58;19.80;91.70
39899;DHT22;25571;47.876;10.642;2022-10-16T16:23:24;19.60;92.00
39899;DHT22;25571;47.876;10.642;2022-10-16T16:28:35;19.50;92.40
39899;DHT22;25571;47.876;10.642;2022-10-16T16:31:01;19.40;92.80
39899;DHT22;25571;47.876;10.642;2022-10-16T16:33:26;19.20;93.20
39899;DHT22;25571;47.876;10.642;2022-10-16T16:35:55;19.10;93.20
39899;DHT22;25571;47.876;10.642;2022-10-16T16:38:21;19.10;93.60
39899;DHT22;25571;47.876;10.642;2022-10-16T16:40:47;18.90;93.70
39899;DHT22;25571;47.876;10.642;2022-10-16T16:43:13;18.90;93.50
39899;DHT22;25571;47.876;10.642;2022-10-16T16:45:38;18.70;93.60
39899;DHT22;25571;47.876;10.642;2022-10-16T16:48:04;18.60;94.30
39899;DHT22;25571;47.876;10.642;2022-10-16T16:50:34;18.50;94.10
39899;DHT22;25571;47.876;10.642;2022-10-16T16:53:00;18.50;94.20
39899;DHT22;25571;47.876;10.642;2022-10-16T16:55:26;18.30;93.90
39899;DHT22;25571;47.876;10.642;2022-10-16T16:57:51;18.30;94.40
39899;DHT22;25571;47.876;10.642;2022-10-16T17:00:17;18.30;94.60
39899;DHT22;25571;47.876;10.642;2022-10-16T17:02:42;18.20;95.10
39899;DHT22;25571;47.876;10.642;2022-10-16T17:05:10;18.10;95.30
39899;DHT22;25571;47.876;10.642;2022-10-16T17:07:35;18.00;95.70
39899;DHT22;25571;47.876;10.642;2022-10-16T17:10:01;17.90;95.90
39899;DHT22;25571;47.876;10.642;2022-10-16T17:12:28;17.90;96.20
39899;DHT22;25571;47.876;10.642;2022-10-16T17:14:54;17.80;96.10
39899;DHT22;25571;47.876;10.642;2022-10-16T17:17:20;17.50;95.70
39899;DHT22;25571;47.876;10.642;2022-10-16T17:24:37;17.50;95.90
39899;DHT22;25571;47.876;10.642;2022-10-16T17:27:03;17.20;96.40